Time;durP1;ratioP1;P1;durP2;ratioP2;P2;SDS_P1;SDS_P2;PMS_P1;PMS_P2;Temp;Humidity;BMP_temperature;BMP_pressure;BME280_temperature;BME280_humidity;BME280_pressure;Samples;Min_cycle;Max_cycle;Signal;HPM_P1;HPM_P2
2023/05/16 00:00:17;;;;;;;5.45;4.88;;;14.80;99.90;;;;;;7383986;19;20144;-76
2023/05/16 00:02:43;;;;;;;6.20;5.18;;;15.10;99.90;;;;;;7380957;19;20197;-75
2023/05/16 00:05:11;;;;;;;5.30;4.80;;;15.10;99.90;;;;;;7384464;19;20130;-75
2023/05/16 00:07:37;;;;;;;6.65;5.03;;;15.20;99.90;;;;;;7385760;19;20149;-75
2023/05/16 00:10:03;;;;;;;6.43;5.15;;;14.90;99.90;;;;;;7385462;19;20134;-76
2023/05/16 00:12:29;;;;;;;5.88;5.28;;;15.00;99.90;;;;;;7384224;19;20139;-76
2023/05/16 00:14:55;;;;;;;9.85;6.05;;;15.00;99.90;;;;;;7383200;19;20161;-76
2023/05/16 00:17:22;;;;;;;7.35;5.28;;;14.90;99.90;;;;;;7383808;19;20160;-76
2023/05/16 00:19:48;;;;;;;7.38;5.78;;;14.90;99.90;;;;;;7380898;19;20154;-75
2023/05/16 00:22:14;;;;;;;7.22;6.05;;;14.80;99.90;;;;;;7380551;19;20142;-75
2023/05/16 00:24:40;;;;;;;8.20;5.70;;;14.90;99.90;;;;;;7382697;19;20147;-76
2023/05/16 00:27:07;;;;;;;7.10;5.70;;;15.10;99.90;;;;;;7380523;19;20147;-75
2023/05/16 00:29:36;;;;;;;8.02;6.18;;;15.10;99.90;;;;;;7388687;19;20232;-75
2023/05/16 00:32:01;;;;;;;6.60;5.82;;;14.80;99.90;;;;;;7389797;19;20202;-75
2023/05/16 00:34:27;;;;;;;7.90;6.28;;;14.70;99.90;;;;;;7390577;19;20634;-75
2023/05/16 00:36:53;;;;;;;7.57;6.13;;;14.40;99.90;;;;;;7392274;19;20138;-75
2023/05/16 00:39:18;;;;;;;6.72;6.03;;;14.50;99.90;;;;;;7390343;19;20155;-74
2023/05/16 00:41:45;;;;;;;8.60;7.18;;;14.80;99.90;;;;;;7388156;19;20145;-74
2023/05/16 00:44:11;;;;;;;7.55;6.45;;;14.90;99.90;;;;;;7389469;19;20206;-75
2023/05/16 00:46:36;;;;;;;10.95;7.03;;;14.90;99.90;;;;;;7390328;19;20163;-75
2023/05/16 00:49:05;;;;;;;8.85;7.40;;;14.90;99.90;;;;;;7390043;19;20161;-75
2023/05/16 00:51:31;;;;;;;9.63;7.20;;;14.90;99.90;;;;;;7387892;19;20154;-75
2023/05/16 00:53:57;;;;;;;10.25;7.60;;;14.90;99.90;;;;;;7388981;19;20154;-75
2023/05/16 00:56:23;;;;;;;8.85;7.55;;;15.10;99.90;;;;;;7388414;19;20139;-75
2023/05/16 00:58:49;;;;;;;11.57;9.02;;;15.20;99.90;;;;;;7390107;19;20539;-75
2023/05/16 01:01:15;;;;;;;11.57;9.48;;;15.30;99.90;;;;;;7390202;19;20613;-76
2023/05/16 01:03:42;;;;;;;11.85;9.52;;;15.10;99.90;;;;;;7387080;19;20150;-75
2023/05/16 01:06:08;;;;;;;12.20;9.98;;;15.20;99.90;;;;;;7390138;19;20155;-75
2023/05/16 01:08:33;;;;;;;13.02;9.75;;;15.10;99.90;;;;;;7388183;19;20144;-76
2023/05/16 01:11:47;;;;;;;11.27;8.93;;;15.20;99.90;;;;;;7386104;19;20147;-76
2023/05/16 01:14:30;;;;;;;14.40;10.18;;;15.10;99.90;;;;;;7384259;19;20154;-75
2023/05/16 01:17:24;;;;;;;11.05;9.77;;;15.10;99.90;;;;;;7387470;19;20157;-76
2023/05/16 01:19:59;;;;;;;13.02;10.45;;;15.20;99.90;;;;;;7384382;19;20500;-75
2023/05/16 01:22:34;;;;;;;14.32;10.10;;;15.10;99.90;;;;;;7386833;19;20479;-75
2023/05/16 01:25:08;;;;;;;12.88;10.02;;;15.00;99.90;;;;;;7389313;19;20181;-75
2023/05/16 01:27:37;;;;;;;14.13;10.63;;;14.90;99.90;;;;;;7388394;19;20153;-75
2023/05/16 01:30:16;;;;;;;11.05;9.57;;;14.90;99.90;;;;;;7388502;19;20139;-75
2023/05/16 01:32:43;;;;;;;12.80;9.75;;;14.90;99.90;;;;;;7388737;19;20217;-75
2023/05/16 01:35:12;;;;;;;15.13;11.43;;;14.90;99.90;;;;;;7388962;19;20262;-75
2023/05/16 01:38:24;;;;;;;15.25;11.70;;;14.90;99.90;;;;;;7384841;19;20141;-75
2023/05/16 01:41:13;;;;;;;15.10;10.98;;;15.00;99.90;;;;;;7386678;19;20153;-75
2023/05/16 01:43:44;;;;;;;13.63;11.38;;;15.00;99.90;;;;;;7390539;19;20161;-74
2023/05/16 01:46:18;;;;;;;16.27;12.57;;;14.90;99.90;;;;;;7389886;19;20170;-76
2023/05/16 01:48:49;;;;;;;18.50;13.35;;;15.10;99.90;;;;;;7382301;19;20171;-76
2023/05/16 01:51:15;;;;;;;21.17;13.50;;;14.80;99.90;;;;;;7389554;19;20138;-76
2023/05/16 01:53:44;;;;;;;19.58;14.63;;;14.90;99.90;;;;;;7388535;19;20158;-76
2023/05/16 01:56:14;;;;;;;17.38;13.50;;;14.70;99.90;;;;;;7387824;19;20146;-75
2023/05/16 01:58:41;;;;;;;18.98;14.13;;;14.80;99.90;;;;;;7389007;19;20607;-76
2023/05/16 02:01:06;;;;;;;19.60;14.25;;;14.80;99.90;;;;;;7381636;19;20176;-76
2023/05/16 02:03:33;;;;;;;18.25;14.55;;;14.90;99.90;;;;;;7388745;19;20598;-76
2023/05/16 02:06:00;;;;;;;18.42;13.70;;;14.90;99.90;;;;;;7388171;19;20273;-75
2023/05/16 02:08:27;;;;;;;18.63;14.60;;;15.00;99.90;;;;;;7385720;19;20161;-75
2023/05/16 02:10:53;;;;;;;21.70;15.23;;;14.90;99.90;;;;;;7388517;19;20206;-75
2023/05/16 02:13:18;;;;;;;22.67;15.60;;;14.90;99.90;;;;;;7387222;19;20155;-75
2023/05/16 02:15:45;;;;;;;20.35;13.93;;;14.80;99.90;;;;;;7387549;19;20578;-76
2023/05/16 02:18:11;;;;;;;21.00;15.00;;;14.80;99.90;;;;;;7386988;19;20309;-75
2023/05/16 02:20:38;;;;;;;19.33;14.88;;;14.80;99.90;;;;;;7384136;19;20143;-77
2023/05/16 02:23:04;;;;;;;19.23;15.20;;;14.80;99.90;;;;;;7387650;19;20158;-75
2023/05/16 02:25:30;;;;;;;22.08;15.45;;;14.80;99.90;;;;;;7385609;19;20458;-75
2023/05/16 02:27:55;;;;;;;18.20;14.98;;;14.60;99.90;;;;;;7387366;19;20486;-75
2023/05/16 02:30:21;;;;;;;25.10;15.68;;;14.80;99.90;;;;;;7385524;19;20598;-75
2023/05/16 02:32:47;;;;;;;22.65;16.60;;;14.70;99.90;;;;;;7387666;19;20179;-75
2023/05/16 02:35:14;;;;;;;24.30;16.60;;;14.80;99.90;;;;;;7386195;19;20751;-75
2023/05/16 02:37:40;;;;;;;20.70;15.75;;;14.80;99.90;;;;;;7384143;19;20155;-74
2023/05/16 02:40:07;;;;;;;23.35;16.63;;;14.70;99.90;;;;;;7386463;19;20253;-76
2023/05/16 02:42:33;;;;;;;25.15;16.83;;;14.70;99.90;;;;;;7383680;19;20457;-75
2023/05/16 02:44:59;;;;;;;25.20;17.98;;;14.80;99.90;;;;;;7388446;19;20137;-75
2023/05/16 02:47:25;;;;;;;24.20;17.58;;;14.80;99.90;;;;;;7387227;19;20157;-75
2023/05/16 02:49:51;;;;;;;23.27;17.20;;;14.70;99.90;;;;;;7386454;19;20590;-76
2023/05/16 02:52:20;;;;;;;23.40;17.40;;;14.50;99.90;;;;;;7385009;19;20160;-75
2023/05/16 02:54:46;;;;;;;21.13;15.85;;;14.50;99.90;;;;;;7386676;19;20150;-76
2023/05/16 02:57:12;;;;;;;23.23;17.25;;;14.30;99.90;;;;;;7385990;19;20486;-75
2023/05/16 02:59:38;;;;;;;21.92;16.40;;;14.50;99.90;;;;;;7384351;19;20134;-75
2023/05/16 03:02:04;;;;;;;22.00;15.95;;;14.60;99.90;;;;;;7384070;19;20142;-76
2023/05/16 03:04:29;;;;;;;24.45;17.25;;;14.50;99.90;;;;;;7385934;19;20249;-76
2023/05/16 03:06:55;;;;;;;27.25;17.00;;;14.60;99.90;;;;;;7386018;19;20627;-75
2023/05/16 03:09:21;;;;;;;25.92;17.02;;;14.80;99.90;;;;;;7383893;19;20645;-76
2023/05/16 03:11:47;;;;;;;22.83;17.50;;;14.60;99.90;;;;;;7386094;19;20505;-75
2023/05/16 03:14:13;;;;;;;27.27;18.85;;;14.70;99.90;;;;;;7384932;19;20139;-76
2023/05/16 03:16:42;;;;;;;27.02;17.80;;;14.60;99.90;;;;;;7384197;19;20149;-75
2023/05/16 03:19:08;;;;;;;23.88;16.80;;;14.80;99.90;;;;;;7382540;19;20241;-75
2023/05/16 03:21:33;;;;;;;27.73;18.23;;;14.50;99.90;;;;;;7385861;19;20143;-76
2023/05/16 03:24:00;;;;;;;26.25;18.35;;;14.30;99.90;;;;;;7384318;19;20221;-76
2023/05/16 03:26:26;;;;;;;26.10;18.40;;;14.40;99.90;;;;;;7386962;19;20139;-75
2023/05/16 03:28:52;;;;;;;26.08;18.35;;;14.40;99.90;;;;;;7385004;19;20142;-75
2023/05/16 03:31:18;;;;;;;27.10;18.58;;;14.60;99.90;;;;;;7385913;19;20145;-76
2023/05/16 03:33:44;;;;;;;33.58;19.65;;;14.60;99.90;;;;;;7383097;19;20134;-75
2023/05/16 03:36:10;;;;;;;32.08;20.13;;;14.40;99.90;;;;;;7385632;19;20139;-75
2023/05/16 03:38:36;;;;;;;31.50;20.50;;;14.50;99.90;;;;;;7386199;19;20259;-76
2023/05/16 03:41:01;;;;;;;29.60;20.02;;;14.40;99.90;;;;;;7383476;19;20166;-75
2023/05/16 03:43:27;;;;;;;28.92;19.45;;;14.40;99.90;;;;;;7379484;19;20133;-75
2023/05/16 03:45:53;;;;;;;33.08;21.80;;;14.30;99.90;;;;;;7387007;19;20127;-75
2023/05/16 03:48:19;;;;;;;30.80;21.00;;;14.30;99.90;;;;;;7386743;19;20573;-75
2023/05/16 03:50:44;;;;;;;33.30;21.02;;;14.30;99.90;;;;;;7384245;19;20146;-74
2023/05/16 03:53:11;;;;;;;31.05;21.38;;;14.20;99.90;;;;;;7386078;19;20131;-75
2023/05/16 03:55:36;;;;;;;32.00;20.52;;;14.30;99.90;;;;;;7383102;19;20138;-75
2023/05/16 03:58:02;;;;;;;31.38;21.25;;;14.30;99.90;;;;;;7385241;19;20578;-75
2023/05/16 04:00:28;;;;;;;33.08;21.73;;;14.30;99.90;;;;;;7384008;19;20148;-75
2023/05/16 04:02:54;;;;;;;37.20;23.52;;;14.40;99.90;;;;;;7389689;19;20133;-76
2023/05/16 04:05:20;;;;;;;34.47;21.38;;;14.40;99.90;;;;;;7391540;19;20558;-76
2023/05/16 04:07:45;;;;;;;34.85;22.63;;;14.30;99.90;;;;;;7391210;19;20508;-75
2023/05/16 04:10:11;;;;;;;33.05;21.98;;;14.30;99.90;;;;;;7390614;19;20146;-76
2023/05/16 04:12:37;;;;;;;35.38;21.95;;;14.30;99.90;;;;;;7389699;19;20697;-75
2023/05/16 04:15:04;;;;;;;30.63;21.13;;;14.20;99.90;;;;;;7388887;19;20149;-75
2023/05/16 04:17:30;;;;;;;33.22;20.83;;;14.30;99.90;;;;;;7391628;19;20149;-75
2023/05/16 04:19:56;;;;;;;33.13;22.75;;;14.30;99.90;;;;;;7388143;19;20210;-74
2023/05/16 04:22:21;;;;;;;33.97;21.15;;;14.40;99.90;;;;;;7390176;19;20153;-76
2023/05/16 04:24:48;;;;;;;34.05;21.30;;;14.30;99.90;;;;;;7390630;19;20204;-76
2023/05/16 04:27:14;;;;;;;32.35;20.50;;;14.20;99.90;;;;;;7390719;19;20150;-75
2023/05/16 04:29:39;;;;;;;34.55;22.75;;;14.40;99.90;;;;;;7391101;19;20528;-75
2023/05/16 04:32:06;;;;;;;33.95;22.73;;;14.40;99.90;;;;;;7390229;19;20202;-75
2023/05/16 04:34:36;;;;;;;37.55;22.30;;;14.30;99.90;;;;;;7389501;19;20151;-75
2023/05/16 04:37:06;;;;;;;32.25;21.83;;;14.40;99.90;;;;;;7390653;19;20130;-75
2023/05/16 04:39:33;;;;;;;33.22;22.95;;;14.40;99.90;;;;;;7389268;19;20138;-75
2023/05/16 04:42:00;;;;;;;33.47;21.92;;;14.40;99.90;;;;;;7391008;19;20278;-75
2023/05/16 04:44:26;;;;;;;35.58;22.02;;;14.50;99.90;;;;;;7389462;19;20246;-75
2023/05/16 04:46:54;;;;;;;33.75;22.65;;;14.40;99.90;;;;;;7391556;19;20569;-75
2023/05/16 04:49:21;;;;;;;36.78;23.60;;;14.50;99.90;;;;;;7389394;19;20154;-75
2023/05/16 04:51:48;;;;;;;32.78;22.40;;;14.60;99.90;;;;;;7390099;19;20146;-75
2023/05/16 04:54:14;;;;;;;34.10;21.90;;;14.70;99.90;;;;;;7389088;19;20135;-75
2023/05/16 04:56:40;;;;;;;38.35;22.95;;;14.70;99.90;;;;;;7388852;19;20167;-75
2023/05/16 04:59:06;;;;;;;35.75;23.23;;;14.60;99.90;;;;;;7388830;19;20141;-75
2023/05/16 05:01:32;;;;;;;34.92;22.60;;;14.60;99.90;;;;;;7390168;19;20465;-74
2023/05/16 05:03:57;;;;;;;36.42;23.73;;;14.50;99.90;;;;;;7390322;19;20527;-75
2023/05/16 05:06:23;;;;;;;35.60;23.38;;;14.60;99.90;;;;;;7387425;19;20637;-75
2023/05/16 05:08:49;;;;;;;38.78;23.13;;;14.60;99.90;;;;;;7388118;19;20554;-74
2023/05/16 05:11:15;;;;;;;36.53;23.67;;;14.50;99.90;;;;;;7391191;19;20139;-73
2023/05/16 05:13:40;;;;;;;37.30;22.63;;;14.50;99.90;;;;;;7388799;19;20487;-75
2023/05/16 05:16:06;;;;;;;34.60;22.50;;;14.40;99.90;;;;;;7382822;19;20138;-76
2023/05/16 05:18:32;;;;;;;33.75;22.40;;;14.60;99.90;;;;;;7388691;19;20126;-76
2023/05/16 05:20:58;;;;;;;35.77;22.23;;;14.70;99.90;;;;;;7386586;19;20578;-75
2023/05/16 05:23:24;;;;;;;37.55;23.60;;;14.50;99.90;;;;;;7386085;19;20461;-75
2023/05/16 05:25:50;;;;;;;36.08;22.20;;;14.60;99.90;;;;;;7387044;19;20133;-76
2023/05/16 05:28:16;;;;;;;32.67;21.98;;;14.50;99.90;;;;;;7389468;19;20139;-76
2023/05/16 05:30:42;;;;;;;31.42;20.38;;;14.50;99.90;;;;;;7387540;19;20154;-76
2023/05/16 05:33:10;;;;;;;33.75;22.65;;;14.50;99.90;;;;;;7390199;19;20607;-76
2023/05/16 05:35:36;;;;;;;33.88;22.38;;;14.40;99.90;;;;;;7388767;19;20261;-75
2023/05/16 05:38:03;;;;;;;34.20;22.10;;;14.40;99.90;;;;;;7385085;19;20151;-75
2023/05/16 05:40:29;;;;;;;37.70;23.10;;;14.30;99.90;;;;;;7387324;19;20151;-77
2023/05/16 05:42:54;;;;;;;37.28;22.10;;;14.40;99.90;;;;;;7386918;19;20519;-76
2023/05/16 05:45:20;;;;;;;37.47;22.63;;;14.40;99.90;;;;;;7388494;19;20459;-75
2023/05/16 05:47:46;;;;;;;33.45;21.67;;;14.30;99.90;;;;;;7389513;19;20137;-76
2023/05/16 05:50:13;;;;;;;38.30;23.70;;;14.30;99.90;;;;;;7387480;19;20143;-76
2023/05/16 05:52:39;;;;;;;33.72;22.38;;;14.30;99.90;;;;;;7388857;19;20150;-76
2023/05/16 05:55:05;;;;;;;37.80;23.57;;;14.30;99.90;;;;;;7387534;19;20464;-76
2023/05/16 05:57:31;;;;;;;34.78;23.25;;;14.30;99.90;;;;;;7387636;19;20852;-76
2023/05/16 05:59:57;;;;;;;34.45;23.15;;;14.40;99.90;;;;;;7386598;19;20272;-76
2023/05/16 06:02:23;;;;;;;36.22;22.42;;;14.60;99.90;;;;;;7386826;19;20151;-73
2023/05/16 06:04:49;;;;;;;37.03;22.55;;;14.30;99.90;;;;;;7391646;19;20148;-75
2023/05/16 06:07:15;;;;;;;33.50;22.60;;;14.30;99.90;;;;;;7388137;19;20196;-74
2023/05/16 06:09:42;;;;;;;29.83;20.58;;;14.40;99.90;;;;;;7388870;19;20160;-75
2023/05/16 06:12:09;;;;;;;32.15;20.73;;;14.40;99.90;;;;;;7385347;19;20169;-74
2023/05/16 06:14:35;;;;;;;30.45;21.23;;;14.50;99.90;;;;;;7389840;19;20161;-74
2023/05/16 06:17:00;;;;;;;35.70;21.05;;;14.50;99.90;;;;;;7387814;19;20143;-74
2023/05/16 06:19:26;;;;;;;35.00;21.70;;;14.50;99.90;;;;;;7384927;19;20701;-78
2023/05/16 06:21:52;;;;;;;30.42;19.95;;;14.40;99.90;;;;;;7381730;19;20594;-77
2023/05/16 06:24:18;;;;;;;29.75;21.50;;;14.40;99.90;;;;;;7384692;19;20150;-74
2023/05/16 06:26:48;;;;;;;32.58;20.67;;;14.40;99.90;;;;;;7386583;19;20138;-74
2023/05/16 06:29:14;;;;;;;28.08;20.25;;;14.40;99.90;;;;;;7386250;19;20134;-75
2023/05/16 06:31:40;;;;;;;30.35;19.63;;;14.50;99.90;;;;;;7388132;19;20233;-76
2023/05/16 06:34:05;;;;;;;30.02;19.38;;;14.60;99.90;;;;;;7388390;19;20221;-76
2023/05/16 06:36:31;;;;;;;30.52;19.80;;;14.80;99.90;;;;;;7386180;19;20141;-74
2023/05/16 06:38:57;;;;;;;29.90;19.67;;;14.50;99.90;;;;;;7386701;19;20571;-74
2023/05/16 06:41:23;;;;;;;28.60;19.42;;;14.60;99.90;;;;;;7386309;19;20135;-75
2023/05/16 06:43:49;;;;;;;28.92;19.65;;;14.60;99.90;;;;;;7386139;19;20138;-77
2023/05/16 06:46:17;;;;;;;28.73;19.63;;;14.50;99.90;;;;;;7383230;19;20139;-74
2023/05/16 06:48:45;;;;;;;30.30;19.42;;;14.60;99.90;;;;;;7384835;19;20154;-74
2023/05/16 06:51:12;;;;;;;29.48;19.25;;;14.70;99.90;;;;;;7385604;19;20601;-75
2023/05/16 06:53:37;;;;;;;30.98;19.10;;;14.60;99.90;;;;;;7386041;19;20150;-75
2023/05/16 06:56:03;;;;;;;29.20;18.90;;;14.70;99.90;;;;;;7386622;19;20148;-73
2023/05/16 06:58:30;;;;;;;27.48;18.95;;;14.70;99.90;;;;;;7386414;19;20147;-74
2023/05/16 07:00:56;;;;;;;26.02;17.88;;;14.70;99.90;;;;;;7384178;19;20135;-75
2023/05/16 07:03:22;;;;;;;27.98;18.63;;;14.60;99.90;;;;;;7387564;19;20175;-74
2023/05/16 07:05:51;;;;;;;30.90;21.73;;;14.40;99.90;;;;;;7387521;19;20131;-74
2023/05/16 07:08:17;;;;;;;26.25;16.83;;;14.40;99.90;;;;;;7387905;19;20145;-75
2023/05/16 07:10:43;;;;;;;23.90;16.30;;;14.60;99.90;;;;;;7386499;19;20544;-73
2023/05/16 07:13:09;;;;;;;27.17;17.33;;;14.50;99.90;;;;;;7386299;19;20138;-74
2023/05/16 07:15:34;;;;;;;24.65;16.55;;;14.60;99.90;;;;;;7388711;19;20627;-73
2023/05/16 07:18:00;;;;;;;24.52;15.63;;;14.50;99.90;;;;;;7388073;19;20657;-74
2023/05/16 07:20:26;;;;;;;24.35;14.65;;;14.50;99.90;;;;;;7383020;19;20601;-74
2023/05/16 07:22:52;;;;;;;20.13;14.40;;;14.50;99.90;;;;;;7382250;19;20142;-75
2023/05/16 07:25:18;;;;;;;20.40;14.88;;;14.60;99.90;;;;;;7384705;19;20154;-75
2023/05/16 07:27:44;;;;;;;18.80;13.63;;;14.50;99.90;;;;;;7385521;19;20571;-74
2023/05/16 07:30:13;;;;;;;18.70;13.38;;;14.40;99.90;;;;;;7384123;19;20157;-77
2023/05/16 07:32:39;;;;;;;15.43;10.95;;;14.30;99.90;;;;;;7384553;19;20130;-76
2023/05/16 07:35:06;;;;;;;12.93;10.10;;;14.20;99.90;;;;;;7384179;19;20167;-76
2023/05/16 07:37:32;;;;;;;13.87;9.63;;;14.10;99.90;;;;;;7383549;19;20172;-76
2023/05/16 07:39:58;;;;;;;13.80;9.25;;;14.10;99.90;;;;;;7385101;19;20288;-76
2023/05/16 07:42:23;;;;;;;11.63;8.97;;;14.10;99.90;;;;;;7383996;19;20146;-76
2023/05/16 07:44:49;;;;;;;12.43;8.83;;;14.10;99.90;;;;;;7386443;19;20131;-76
2023/05/16 07:47:15;;;;;;;11.95;8.82;;;14.10;99.90;;;;;;7386534;19;20138;-75
2023/05/16 07:49:41;;;;;;;10.68;7.85;;;14.20;99.90;;;;;;7381800;19;20168;-76
2023/05/16 07:52:07;;;;;;;10.13;7.00;;;14.30;99.90;;;;;;7386811;19;20130;-76
2023/05/16 07:54:34;;;;;;;9.80;7.80;;;14.40;99.90;;;;;;7385729;19;21053;-77
2023/05/16 07:57:00;;;;;;;9.15;7.65;;;14.50;99.90;;;;;;7383184;19;20143;-76
2023/05/16 07:59:26;;;;;;;9.25;7.13;;;14.40;99.90;;;;;;7383867;19;20159;-77
2023/05/16 08:01:53;;;;;;;7.97;7.15;;;14.40;99.90;;;;;;7382948;19;20151;-77
2023/05/16 08:04:19;;;;;;;9.55;7.47;;;14.50;99.90;;;;;;7383683;19;20173;-77
2023/05/16 08:06:45;;;;;;;10.50;7.90;;;14.60;99.90;;;;;;7383111;19;20137;-77
2023/05/16 08:09:11;;;;;;;8.57;7.68;;;14.50;99.90;;;;;;7383690;19;20122;-77
2023/05/16 08:11:38;;;;;;;9.52;7.70;;;14.50;99.90;;;;;;7385981;19;20131;-76
2023/05/16 08:14:04;;;;;;;10.27;7.90;;;14.40;99.90;;;;;;7384886;19;20222;-74
2023/05/16 08:16:30;;;;;;;10.73;7.90;;;14.40;99.90;;;;;;7386989;19;20131;-75
2023/05/16 08:18:56;;;;;;;10.02;7.72;;;14.40;99.90;;;;;;7383721;19;20471;-74
2023/05/16 08:21:22;;;;;;;12.10;7.47;;;14.50;99.90;;;;;;7380418;19;20154;-75
2023/05/16 08:23:47;;;;;;;9.55;7.75;;;14.40;99.90;;;;;;7384221;19;20167;-76
2023/05/16 08:26:15;;;;;;;9.80;7.93;;;14.40;99.90;;;;;;7382112;19;20170;-76
2023/05/16 08:28:41;;;;;;;8.48;7.35;;;14.40;99.90;;;;;;7384543;19;20479;-76
2023/05/16 08:31:07;;;;;;;12.57;9.17;;;14.40;99.90;;;;;;7383660;19;20214;-76
2023/05/16 08:33:33;;;;;;;10.27;7.40;;;14.40;99.90;;;;;;7381420;19;20160;-76
2023/05/16 08:36:00;;;;;;;11.53;7.73;;;14.40;99.90;;;;;;7379633;19;20662;-75
2023/05/16 08:38:25;;;;;;;10.88;8.45;;;14.50;99.90;;;;;;7383921;19;20236;-76
2023/05/16 08:40:51;;;;;;;10.13;8.03;;;14.40;99.90;;;;;;7381136;19;20543;-76
2023/05/16 08:43:17;;;;;;;10.88;9.02;;;14.40;99.90;;;;;;7384601;19;20149;-75
2023/05/16 08:45:43;;;;;;;11.43;8.40;;;14.40;99.90;;;;;;7383690;19;20594;-77
2023/05/16 08:48:10;;;;;;;13.07;9.18;;;14.30;99.90;;;;;;7389323;19;20154;-75
2023/05/16 08:50:36;;;;;;;14.23;9.10;;;14.40;99.90;;;;;;7390935;19;20260;-77
2023/05/16 08:53:06;;;;;;;15.07;10.43;;;14.30;99.90;;;;;;7390920;19;20158;-76
2023/05/16 08:55:33;;;;;;;14.03;10.33;;;14.10;99.90;;;;;;7389173;19;20134;-75
2023/05/16 08:58:00;;;;;;;14.43;10.18;;;14.10;99.90;;;;;;7389376;19;20213;-76
2023/05/16 09:00:27;;;;;;;12.53;9.97;;;14.10;99.90;;;;;;7391365;19;20261;-77
2023/05/16 09:02:53;;;;;;;13.60;10.60;;;14.20;99.90;;;;;;7388662;19;20143;-77
2023/05/16 09:05:19;;;;;;;15.30;10.45;;;14.20;99.90;;;;;;7390750;19;20744;-78
2023/05/16 09:07:45;;;;;;;13.90;10.37;;;14.20;99.90;;;;;;7390545;19;20138;-77
2023/05/16 09:10:11;;;;;;;15.88;11.80;;;14.20;99.90;;;;;;7389653;19;20147;-75
2023/05/16 09:12:39;;;;;;;15.55;11.07;;;14.20;99.90;;;;;;7391829;19;20142;-77
2023/05/16 09:15:07;;;;;;;14.83;11.43;;;14.20;99.90;;;;;;7390108;19;20143;-77
2023/05/16 09:17:42;;;;;;;16.23;11.48;;;14.30;99.90;;;;;;7389524;19;20180;-76
2023/05/16 09:20:12;;;;;;;15.85;10.95;;;14.30;99.90;;;;;;7386723;19;20261;-75
2023/05/16 09:22:39;;;;;;;15.70;10.73;;;14.50;99.90;;;;;;7386576;19;20142;-76
2023/05/16 09:25:06;;;;;;;16.38;11.25;;;14.50;99.90;;;;;;7390655;19;20462;-75
2023/05/16 09:27:31;;;;;;;16.30;10.70;;;14.40;99.90;;;;;;7390245;19;20591;-74
2023/05/16 09:29:58;;;;;;;15.05;11.25;;;14.50;99.90;;;;;;7391201;19;20131;-75
2023/05/16 09:32:24;;;;;;;16.30;12.18;;;14.40;99.90;;;;;;7388227;19;20501;-75
2023/05/16 09:34:52;;;;;;;16.13;11.97;;;14.40;99.90;;;;;;7388578;19;20146;-75
2023/05/16 09:37:19;;;;;;;17.77;11.50;;;14.40;99.90;;;;;;7391332;19;20134;-74
2023/05/16 09:39:46;;;;;;;16.42;12.60;;;14.40;99.90;;;;;;7388715;19;20479;-75
2023/05/16 09:42:13;;;;;;;17.57;12.40;;;14.50;99.90;;;;;;7390166;19;20135;-75
2023/05/16 09:44:40;;;;;;;16.73;12.43;;;14.60;99.90;;;;;;7388780;19;21080;-75
2023/05/16 09:47:06;;;;;;;18.67;12.45;;;14.70;99.90;;;;;;7389856;19;20677;-74
2023/05/16 09:49:32;;;;;;;18.97;12.27;;;14.70;99.90;;;;;;7390710;19;20680;-74
2023/05/16 09:52:02;;;;;;;16.75;12.25;;;15.00;99.90;;;;;;7388641;19;20142;-76
2023/05/16 09:54:33;;;;;;;20.77;14.85;;;15.40;99.90;;;;;;7390179;19;20139;-75
2023/05/16 09:56:59;;;;;;;17.55;13.25;;;15.50;99.90;;;;;;7388501;19;20139;-75
2023/05/16 09:59:29;;;;;;;18.92;13.05;;;15.70;99.90;;;;;;7387244;19;20146;-75
2023/05/16 10:01:58;;;;;;;14.65;11.55;;;15.70;99.90;;;;;;7386849;19;20872;-76
2023/05/16 10:04:24;;;;;;;16.85;12.07;;;15.70;99.90;;;;;;7394675;19;20127;-76
2023/05/16 10:06:53;;;;;;;17.58;12.48;;;15.60;99.90;;;;;;7390750;19;20131;-74
2023/05/16 10:09:21;;;;;;;15.35;11.50;;;15.40;99.90;;;;;;7391824;19;20242;-76
2023/05/16 10:11:52;;;;;;;15.25;10.82;;;15.20;99.90;;;;;;7388453;19;20135;-76
2023/05/16 10:14:18;;;;;;;18.65;12.32;;;15.10;99.90;;;;;;7387210;19;20483;-75
2023/05/16 10:16:47;;;;;;;16.88;11.88;;;15.00;99.90;;;;;;7387762;19;20123;-75
2023/05/16 10:19:15;;;;;;;17.65;12.48;;;15.20;99.90;;;;;;7385517;19;20176;-77
2023/05/16 10:22:00;;;;;;;19.02;12.77;;;15.20;99.90;;;;;;7388157;19;20147;-77
2023/05/16 10:24:59;;;;;;;19.63;13.15;;;15.30;99.90;;;;;;7385070;19;20598;-76
2023/05/16 10:27:26;;;;;;;18.23;12.43;;;15.30;99.90;;;;;;7387671;19;20550;-74
2023/05/16 10:29:52;;;;;;;14.38;11.57;;;15.40;99.90;;;;;;7389534;19;20134;-74
2023/05/16 10:32:25;;;;;;;17.17;11.90;;;15.40;99.90;;;;;;7387717;19;20131;-74
2023/05/16 10:34:51;;;;;;;16.90;11.77;;;15.50;99.90;;;;;;7385260;19;20144;-73
2023/05/16 10:37:17;;;;;;;20.20;12.93;;;15.50;99.90;;;;;;7384874;19;20180;-74
2023/05/16 10:39:44;;;;;;;16.90;11.65;;;15.60;99.90;;;;;;7387638;19;20152;-74
2023/05/16 10:42:10;;;;;;;17.90;11.70;;;15.90;99.90;;;;;;7384954;19;20153;-74
2023/05/16 10:44:38;;;;;;;17.90;11.55;;;15.80;99.90;;;;;;7387024;19;20233;-75
2023/05/16 10:47:04;;;;;;;14.88;11.32;;;15.80;99.90;;;;;;7386500;19;20157;-74
2023/05/16 10:49:30;;;;;;;14.70;11.18;;;15.70;99.90;;;;;;7387947;19;20135;-74
2023/05/16 10:52:10;;;;;;;18.48;12.18;;;15.70;99.90;;;;;;7386749;19;20131;-74
2023/05/16 10:54:40;;;;;;;17.77;11.95;;;15.50;99.90;;;;;;7384796;19;20149;-75
2023/05/16 10:57:11;;;;;;;15.25;11.25;;;15.30;99.90;;;;;;7384401;19;20269;-74
2023/05/16 10:59:47;;;;;;;17.58;11.90;;;15.10;99.90;;;;;;7387152;19;20131;-74
2023/05/16 11:02:34;;;;;;;16.50;11.52;;;15.20;99.90;;;;;;7383161;19;20130;-75
2023/05/16 11:05:01;;;;;;;15.07;10.13;;;15.20;99.90;;;;;;7387046;19;20138;-74
2023/05/16 11:07:33;;;;;;;13.73;10.25;;;15.00;99.90;;;;;;7386460;19;20229;-74
2023/05/16 11:10:13;;;;;;;15.60;10.73;;;14.90;99.90;;;;;;7387757;19;20163;-75
2023/05/16 11:12:48;;;;;;;19.80;11.68;;;14.80;99.90;;;;;;7384029;19;20134;-76
2023/05/16 11:15:27;;;;;;;16.42;11.25;;;14.80;99.90;;;;;;7387093;19;20138;-77
2023/05/16 11:18:05;;;;;;;18.52;11.50;;;14.80;99.90;;;;;;7386020;19;20141;-77
2023/05/16 11:20:33;;;;;;;15.07;10.50;;;14.80;99.90;;;;;;7384776;19;20156;-76
2023/05/16 11:23:17;;;;;;;18.20;9.90;;;14.70;99.90;;;;;;7381592;19;20149;-76
2023/05/16 11:25:55;;;;;;;16.05;10.50;;;14.70;99.90;;;;;;7385308;19;20134;-76
2023/05/16 11:28:25;;;;;;;16.20;10.32;;;14.60;99.90;;;;;;7387213;19;20142;-76
2023/05/16 11:30:56;;;;;;;13.68;9.80;;;14.40;99.90;;;;;;7385064;19;20206;-74
2023/05/16 11:33:23;;;;;;;13.07;8.83;;;14.40;99.90;;;;;;7386875;19;20182;-75
2023/05/16 11:36:06;;;;;;;13.48;8.82;;;14.40;99.90;;;;;;7386426;19;20204;-75
2023/05/16 11:38:32;;;;;;;11.37;8.37;;;14.30;99.90;;;;;;7387038;19;20138;-76
2023/05/16 11:41:06;;;;;;;10.25;7.50;;;14.30;99.90;;;;;;7382680;19;20159;-76
2023/05/16 11:43:43;;;;;;;11.97;8.13;;;14.20;99.90;;;;;;7385980;19;20134;-74
2023/05/16 11:46:13;;;;;;;11.98;7.88;;;14.20;99.90;;;;;;7385656;19;20142;-75
2023/05/16 11:48:40;;;;;;;12.15;7.88;;;14.10;99.90;;;;;;7387268;19;20153;-76
2023/05/16 11:51:06;;;;;;;9.27;7.13;;;14.30;99.90;;;;;;7385607;19;20134;-74
2023/05/16 11:53:33;;;;;;;13.38;8.23;;;14.10;99.90;;;;;;7384119;19;20146;-76
2023/05/16 11:56:00;;;;;;;11.23;7.70;;;14.10;99.90;;;;;;7382524;19;20149;-76
2023/05/16 11:58:27;;;;;;;14.48;7.30;;;14.10;99.90;;;;;;7387350;19;20130;-76
2023/05/16 12:00:53;;;;;;;10.85;7.38;;;14.20;99.90;;;;;;7382865;19;20142;-77
2023/05/16 12:03:19;;;;;;;9.82;7.28;;;14.20;99.90;;;;;;7385663;19;20127;-76
2023/05/16 12:05:53;;;;;;;11.60;7.80;;;14.10;99.90;;;;;;7385378;19;20130;-75
2023/05/16 12:08:20;;;;;;;10.83;6.83;;;14.10;99.90;;;;;;7383535;19;20154;-76
2023/05/16 12:10:49;;;;;;;9.70;7.35;;;14.10;99.90;;;;;;7385935;19;20510;-77
2023/05/16 12:13:16;;;;;;;10.07;6.90;;;14.10;99.90;;;;;;7382618;19;20130;-76
2023/05/16 12:15:42;;;;;;;10.07;6.87;;;14.20;99.90;;;;;;7377883;19;20880;-75
2023/05/16 12:18:08;;;;;;;10.03;6.50;;;14.30;99.90;;;;;;7379293;19;20531;-75
2023/05/16 12:20:34;;;;;;;8.83;6.60;;;14.30;99.90;;;;;;7381628;19;20751;-76
2023/05/16 12:23:00;;;;;;;10.03;6.73;;;14.30;99.90;;;;;;7386854;19;20135;-76
2023/05/16 12:25:40;;;;;;;10.13;6.23;;;14.40;99.90;;;;;;7390726;19;20194;-76
2023/05/16 12:28:07;;;;;;;11.00;6.53;;;14.30;99.90;;;;;;7390983;19;20238;-77
2023/05/16 12:30:33;;;;;;;9.07;6.25;;;14.40;99.90;;;;;;7391216;19;20161;-77
2023/05/16 12:33:08;;;;;;;11.60;5.68;;;14.40;99.90;;;;;;7389073;19;20479;-77